createdAt,value
2022-10-07T00:01:53.593Z,13.93
2022-10-07T00:04:20.631Z,13.89
2022-10-07T00:06:47.199Z,13.85
2022-10-07T00:09:14.399Z,13.82
2022-10-07T00:11:41.282Z,13.78
2022-10-07T00:14:07.844Z,13.74
2022-10-07T00:16:36.088Z,13.72
2022-10-07T00:19:04.546Z,13.70
2022-10-07T00:21:32.661Z,13.67
2022-10-07T00:23:59.585Z,13.64
2022-10-07T00:26:31.335Z,13.63
2022-10-07T00:28:58.146Z,13.62
2022-10-07T00:31:26.011Z,13.58
2022-10-07T00:33:54.093Z,13.56
2022-10-07T00:36:24.937Z,13.52
2022-10-07T00:38:57.726Z,13.49
2022-10-07T00:41:35.263Z,13.48
2022-10-07T00:44:22.108Z,13.45
2022-10-07T00:46:48.909Z,13.42
2022-10-07T00:49:15.672Z,13.40
2022-10-07T00:51:43.551Z,13.39
2022-10-07T00:54:12.522Z,13.38
2022-10-07T00:56:40.828Z,13.36
2022-10-07T00:59:07.945Z,13.36
2022-10-07T01:01:35.054Z,13.35
2022-10-07T01:04:02.419Z,13.33
2022-10-07T01:06:28.924Z,13.31
2022-10-07T01:08:55.740Z,13.28
2022-10-07T01:11:23.231Z,13.28
2022-10-07T01:13:56.440Z,13.25
2022-10-07T01:16:33.422Z,13.23
2022-10-07T01:19:18.444Z,13.22
2022-10-07T01:21:56.650Z,13.19
2022-10-07T01:24:41.452Z,13.17
2022-10-07T01:27:15.317Z,13.14
2022-10-07T01:29:55.866Z,13.12
2022-10-07T01:32:32.164Z,13.10
2022-10-07T01:35:01.754Z,13.10
2022-10-07T01:37:31.199Z,13.10
2022-10-07T01:40:02.183Z,13.11
2022-10-07T01:42:30.588Z,13.11
2022-10-07T01:44:58.771Z,13.13
2022-10-07T01:47:25.862Z,13.14
2022-10-07T01:49:52.795Z,13.13
2022-10-07T01:52:34.502Z,13.13
2022-10-07T01:55:19.637Z,13.12
2022-10-07T01:58:06.227Z,13.12
2022-10-07T02:00:38.448Z,13.12
2022-10-07T02:03:05.229Z,13.11
2022-10-07T02:05:31.778Z,13.10
2022-10-07T02:08:17.405Z,13.10
2022-10-07T02:10:44.186Z,13.10
2022-10-07T02:13:21.583Z,13.10
2022-10-07T02:15:52.733Z,13.12
2022-10-07T02:18:20.301Z,13.15
2022-10-07T02:20:48.455Z,13.16
2022-10-07T02:23:16.193Z,13.17
2022-10-07T02:25:45.735Z,13.19
2022-10-07T02:28:13.188Z,13.22
2022-10-07T02:30:41.359Z,13.26
2022-10-07T02:33:09.882Z,13.28
2022-10-07T02:35:46.095Z,13.30
2022-10-07T02:38:14.735Z,13.31
2022-10-07T02:40:54.391Z,13.32
2022-10-07T02:43:39.148Z,13.31
2022-10-07T02:46:08.056Z,13.31
2022-10-07T02:48:37.661Z,13.28
2022-10-07T02:51:07.023Z,13.26
2022-10-07T02:53:34.376Z,13.22
2022-10-07T02:56:02.709Z,13.17
2022-10-07T02:58:29.638Z,13.14
2022-10-07T03:00:58.890Z,13.08
2022-10-07T03:03:25.974Z,13.04
2022-10-07T03:05:54.006Z,12.99
2022-10-07T03:08:23.983Z,12.93
2022-10-07T03:10:50.687Z,12.88
2022-10-07T03:13:17.891Z,12.83
2022-10-07T03:15:45.951Z,12.77
2022-10-07T03:18:28.691Z,12.73
2022-10-07T03:20:56.647Z,12.69
2022-10-07T03:23:23.734Z,12.64
2022-10-07T03:25:51.983Z,12.59
2022-10-07T03:28:22.690Z,12.55
2022-10-07T03:30:50.363Z,12.51
2022-10-07T03:33:17.559Z,12.48
2022-10-07T03:35:44.931Z,12.44
2022-10-07T03:38:11.777Z,12.39
2022-10-07T03:40:38.916Z,12.36
2022-10-07T03:43:07.237Z,12.34
2022-10-07T03:45:35.297Z,12.32
2022-10-07T03:48:01.878Z,12.29
2022-10-07T03:50:28.623Z,12.26
2022-10-07T03:52:56.315Z,12.22
2022-10-07T03:55:23.241Z,12.19
2022-10-07T03:57:50.056Z,12.17
2022-10-07T04:00:18.046Z,12.13
2022-10-07T04:02:50.150Z,12.11
2022-10-07T04:05:18.133Z,12.07
2022-10-07T04:07:46.509Z,12.04
2022-10-07T04:10:16.634Z,12.01
2022-10-07T04:12:43.954Z,11.98
2022-10-07T04:15:13.750Z,11.97
2022-10-07T04:17:41.433Z,11.95
2022-10-07T04:20:09.331Z,11.94
2022-10-07T04:22:36.654Z,11.91
2022-10-07T04:25:33.557Z,11.87
2022-10-07T04:28:21.244Z,11.79
2022-10-07T04:30:51.470Z,11.82
2022-10-07T04:33:19.692Z,11.78
2022-10-07T04:35:46.573Z,11.75
2022-10-07T04:38:14.729Z,11.72
2022-10-07T04:40:43.210Z,11.68
2022-10-07T04:43:19.714Z,11.66
2022-10-07T04:45:47.846Z,11.63
2022-10-07T04:48:19.648Z,11.60
2022-10-07T04:50:47.573Z,11.59
2022-10-07T04:53:15.511Z,11.58
2022-10-07T04:55:46.075Z,11.56
2022-10-07T04:58:13.960Z,11.56
2022-10-07T05:00:50.930Z,11.56
2022-10-07T05:03:19.198Z,11.56
2022-10-07T05:05:49.196Z,11.55
2022-10-07T05:08:17.217Z,11.49
2022-10-07T05:10:44.424Z,11.58
2022-10-07T05:13:12.723Z,11.58
2022-10-07T05:15:55.410Z,11.58
2022-10-07T05:18:23.832Z,11.59
2022-10-07T05:20:50.754Z,11.58
2022-10-07T05:23:18.314Z,11.57
2022-10-07T05:25:46.023Z,11.59
2022-10-07T05:28:13.099Z,11.61
2022-10-07T05:30:41.293Z,11.61
2022-10-07T05:33:10.042Z,11.63
2022-10-07T05:35:37.522Z,11.64
2022-10-07T05:38:04.398Z,11.66
2022-10-07T05:40:31.250Z,11.67
2022-10-07T05:42:57.866Z,11.68
2022-10-07T05:45:25.814Z,11.69
2022-10-07T05:47:53.679Z,11.70
2022-10-07T05:50:20.188Z,11.73
2022-10-07T05:52:48.409Z,11.74
2022-10-07T05:55:16.616Z,11.76
2022-10-07T05:57:43.804Z,11.79
2022-10-07T06:00:12.029Z,11.81
2022-10-07T06:02:40.178Z,11.83
2022-10-07T06:05:08.582Z,11.86
2022-10-07T06:07:35.288Z,11.89
2022-10-07T06:10:21.926Z,11.92
2022-10-07T06:13:07.509Z,11.97
2022-10-07T06:15:34.637Z,12.02
2022-10-07T06:18:03.397Z,12.07
2022-10-07T06:20:30.361Z,12.10
2022-10-07T06:22:58.216Z,12.14
2022-10-07T06:25:25.743Z,12.17
2022-10-07T06:27:55.110Z,12.20
2022-10-07T06:30:22.141Z,12.26
2022-10-07T06:32:49.147Z,12.30
2022-10-07T06:35:16.658Z,12.32
2022-10-07T06:37:43.580Z,12.36
2022-10-07T06:40:11.891Z,12.38
2022-10-07T06:42:38.649Z,12.40
2022-10-07T06:45:17.867Z,12.43
2022-10-07T06:47:45.211Z,12.44
2022-10-07T06:50:13.172Z,12.47
2022-10-07T06:52:43.350Z,12.48
2022-10-07T06:55:11.629Z,12.51
2022-10-07T06:57:46.768Z,12.55
2022-10-07T07:00:15.264Z,12.59
2022-10-07T07:02:42.848Z,12.60
2022-10-07T07:05:13.296Z,12.62
2022-10-07T07:07:40.213Z,12.62
2022-10-07T07:10:07.261Z,12.62
2022-10-07T07:12:35.349Z,12.62
2022-10-07T07:15:02.495Z,12.63
2022-10-07T07:17:29.098Z,12.64
2022-10-07T07:19:57.126Z,12.62
2022-10-07T07:22:24.065Z,12.60
2022-10-07T07:24:50.788Z,12.58
2022-10-07T07:27:17.343Z,12.57
2022-10-07T07:29:44.361Z,12.57
2022-10-07T07:32:11.499Z,12.56
2022-10-07T07:34:38.741Z,12.56
2022-10-07T07:37:05.974Z,12.58
2022-10-07T07:39:34.134Z,12.56
2022-10-07T07:42:01.097Z,12.58
2022-10-07T07:44:33.983Z,12.56
2022-10-07T07:47:02.217Z,12.56
2022-10-07T07:49:32.041Z,12.56
2022-10-07T07:51:59.645Z,12.57
2022-10-07T07:54:27.349Z,12.57
2022-10-07T07:56:55.263Z,12.61
2022-10-07T07:59:22.714Z,12.61
2022-10-07T08:01:49.827Z,12.65
2022-10-07T08:04:17.381Z,12.67
2022-10-07T08:06:44.619Z,12.68
2022-10-07T08:09:12.853Z,12.72
2022-10-07T08:11:41.737Z,12.73
2022-10-07T08:14:08.336Z,12.74
2022-10-07T08:16:37.051Z,12.74
2022-10-07T08:19:04.519Z,12.75
2022-10-07T08:21:34.171Z,12.76
2022-10-07T08:24:02.531Z,12.77
2022-10-07T08:26:30.457Z,12.81
2022-10-07T08:29:01.508Z,12.81
2022-10-07T08:31:29.261Z,12.80
2022-10-07T08:33:57.500Z,12.84
2022-10-07T08:36:24.950Z,12.85
2022-10-07T08:38:51.949Z,12.86
2022-10-07T08:41:34.268Z,12.86
2022-10-07T08:44:16.594Z,12.87
2022-10-07T08:46:53.549Z,12.89
2022-10-07T08:49:25.984Z,12.91
2022-10-07T08:51:57.558Z,12.94
2022-10-07T08:54:28.259Z,12.96
2022-10-07T08:56:57.740Z,12.96
2022-10-07T08:59:34.775Z,12.99
2022-10-07T09:02:11.063Z,13.02
2022-10-07T09:04:54.605Z,13.06
2022-10-07T09:07:40.121Z,13.08
2022-10-07T09:10:20.725Z,13.13
2022-10-07T09:13:14.044Z,13.18
2022-10-07T09:15:56.735Z,13.23
2022-10-07T09:18:31.691Z,13.29
2022-10-07T09:20:59.263Z,13.33
2022-10-07T09:23:29.575Z,13.37
2022-10-07T09:25:56.122Z,13.39
2022-10-07T09:28:32.965Z,13.42
2022-10-07T09:31:00.810Z,13.45
2022-10-07T09:33:30.355Z,13.49
2022-10-07T09:35:58.255Z,13.54
2022-10-07T09:38:38.989Z,13.57
2022-10-07T09:41:17.835Z,13.60
2022-10-07T09:43:56.037Z,13.65
2022-10-07T09:46:39.183Z,13.68
2022-10-07T09:49:06.188Z,13.70
2022-10-07T09:51:35.204Z,13.77
2022-10-07T09:54:04.442Z,13.79
2022-10-07T09:56:41.490Z,13.76
2022-10-07T09:59:17.343Z,13.81
2022-10-07T10:01:59.659Z,13.85
2022-10-07T10:04:37.014Z,13.89
2022-10-07T10:07:16.862Z,13.91
2022-10-07T10:10:10.249Z,13.93
2022-10-07T10:12:45.315Z,13.95
2022-10-07T10:15:27.014Z,13.97
2022-10-07T10:17:56.903Z,14.01
2022-10-07T10:20:23.702Z,14.06
2022-10-07T10:22:50.648Z,14.08
2022-10-07T10:25:37.568Z,14.12
2022-10-07T10:28:14.780Z,14.16
2022-10-07T10:30:47.576Z,14.20
2022-10-07T10:33:33.412Z,14.23
2022-10-07T10:36:35.617Z,14.26
2022-10-07T10:39:04.396Z,14.28
2022-10-07T10:41:35.425Z,14.29
2022-10-07T10:44:07.900Z,14.31
2022-10-07T10:46:43.039Z,14.32
2022-10-07T10:49:14.586Z,14.36
2022-10-07T10:51:50.478Z,14.39
2022-10-07T10:54:28.360Z,14.41
2022-10-07T10:57:04.943Z,14.40
2022-10-07T10:59:41.164Z,14.44
2022-10-07T11:02:08.002Z,14.47
2022-10-07T11:04:42.020Z,14.50
2022-10-07T11:07:35.139Z,14.53
2022-10-07T11:10:05.317Z,14.54
2022-10-07T11:12:37.033Z,14.57
2022-10-07T11:15:21.322Z,14.61
2022-10-07T11:17:50.092Z,14.64
2022-10-07T11:20:25.229Z,14.69
2022-10-07T11:22:56.801Z,14.73
2022-10-07T11:25:26.589Z,14.76
2022-10-07T11:27:54.543Z,14.81
2022-10-07T11:30:23.170Z,14.86
2022-10-07T11:32:59.419Z,14.87
2022-10-07T11:35:29.485Z,14.91
2022-10-07T11:38:14.704Z,14.93
2022-10-07T11:40:43.803Z,14.94
2022-10-07T11:43:16.063Z,14.94
2022-10-07T11:45:49.747Z,14.96
2022-10-07T11:48:21.794Z,14.98
2022-10-07T11:50:57.993Z,15.00
2022-10-07T11:53:26.437Z,15.03
2022-10-07T11:56:20.411Z,15.06
2022-10-07T11:58:56.033Z,15.10
2022-10-07T12:01:25.748Z,15.11
2022-10-07T12:03:53.945Z,15.14
2022-10-07T12:06:20.688Z,15.16
2022-10-07T12:08:47.205Z,15.16
2022-10-07T12:11:17.071Z,15.21
2022-10-07T12:13:43.833Z,15.22
2022-10-07T12:16:30.337Z,15.24
2022-10-07T12:19:15.440Z,15.27
2022-10-07T12:21:51.518Z,15.29
2022-10-07T12:24:18.298Z,15.30
2022-10-07T12:26:46.443Z,15.31
2022-10-07T12:29:19.519Z,15.32
2022-10-07T12:31:46.740Z,15.34
2022-10-07T12:34:21.260Z,15.36
2022-10-07T12:36:49.027Z,15.38
2022-10-07T12:39:15.520Z,15.38
2022-10-07T12:41:45.295Z,15.39
2022-10-07T12:44:16.187Z,15.40
2022-10-07T12:47:01.288Z,15.39
2022-10-07T12:49:40.976Z,15.41
2022-10-07T12:52:07.517Z,15.42
2022-10-07T12:54:38.790Z,15.42
2022-10-07T12:57:11.963Z,15.42
2022-10-07T12:59:48.090Z,15.43
2022-10-07T13:02:27.737Z,15.43
2022-10-07T13:05:05.971Z,15.42
2022-10-07T13:07:52.026Z,15.43
2022-10-07T13:10:39.268Z,15.43
2022-10-07T13:13:29.143Z,15.44
2022-10-07T13:15:59.180Z,15.39
2022-10-07T13:18:25.710Z,15.45
2022-10-07T13:20:58.475Z,15.47
2022-10-07T13:23:27.640Z,15.47
2022-10-07T13:25:55.841Z,15.46
2022-10-07T13:28:25.332Z,15.46
2022-10-07T13:30:53.074Z,15.47
2022-10-07T13:33:19.586Z,15.46
2022-10-07T13:35:46.204Z,15.46
2022-10-07T13:38:23.435Z,15.45
2022-10-07T13:41:02.389Z,15.44
2022-10-07T13:43:30.062Z,15.44
2022-10-07T13:45:57.300Z,15.42
2022-10-07T13:48:29.104Z,15.41
2022-10-07T13:50:58.588Z,15.42
2022-10-07T13:53:27.864Z,15.42
2022-10-07T13:56:13.619Z,15.40
2022-10-07T13:58:40.747Z,15.38
2022-10-07T14:01:07.625Z,15.35
2022-10-07T14:03:34.577Z,15.35
2022-10-07T14:06:01.456Z,15.33
2022-10-07T14:08:29.281Z,15.30
2022-10-07T14:11:04.937Z,15.27
2022-10-07T14:13:32.134Z,15.25
2022-10-07T14:15:59.387Z,15.21
2022-10-07T14:18:27.759Z,15.19
2022-10-07T14:20:55.832Z,15.18
2022-10-07T14:23:30.514Z,15.17
2022-10-07T14:25:57.013Z,15.15
2022-10-07T14:28:23.954Z,15.14
2022-10-07T14:31:29.190Z,15.12
2022-10-07T14:34:27.185Z,15.10
2022-10-07T14:37:27.177Z,15.07
2022-10-07T14:39:56.489Z,15.05
2022-10-07T14:42:32.380Z,15.03
2022-10-07T14:45:01.931Z,15.01
2022-10-07T14:47:36.855Z,14.97
2022-10-07T14:50:03.931Z,14.91
2022-10-07T14:52:32.150Z,14.84
2022-10-07T14:55:00.496Z,14.78
2022-10-07T14:57:27.456Z,14.74
2022-10-07T14:59:54.399Z,14.68
2022-10-07T15:02:21.017Z,14.65
2022-10-07T15:04:48.527Z,14.61
2022-10-07T15:07:16.093Z,14.59
2022-10-07T15:09:43.464Z,14.57
2022-10-07T15:12:11.484Z,14.56
2022-10-07T15:14:38.092Z,14.50
2022-10-07T15:17:05.540Z,14.46
2022-10-07T15:19:32.536Z,14.41
2022-10-07T15:22:00.087Z,14.35
2022-10-07T15:24:29.116Z,14.29
2022-10-07T15:26:55.926Z,14.25
2022-10-07T15:29:22.590Z,14.24
2022-10-07T15:31:52.208Z,14.20
2022-10-07T15:34:19.164Z,14.20
2022-10-07T15:36:46.113Z,14.17
2022-10-07T15:39:12.652Z,14.16
2022-10-07T15:41:43.186Z,14.15
2022-10-07T15:44:12.922Z,14.14
2022-10-07T15:46:39.943Z,14.12
2022-10-07T15:49:07.583Z,14.10
2022-10-07T15:51:36.355Z,14.06
2022-10-07T15:54:03.713Z,14.01
2022-10-07T15:56:30.656Z,13.96
2022-10-07T15:58:58.748Z,13.88
2022-10-07T16:01:28.206Z,13.82
2022-10-07T16:03:55.896Z,13.78
2022-10-07T16:06:24.010Z,13.71
2022-10-07T16:08:51.132Z,13.62
2022-10-07T16:11:17.953Z,13.54
2022-10-07T16:13:46.959Z,13.49
2022-10-07T16:16:18.012Z,13.42
2022-10-07T16:18:46.152Z,13.38
2022-10-07T16:21:14.038Z,13.31
2022-10-07T16:23:41.651Z,13.25
2022-10-07T16:26:10.047Z,13.17
2022-10-07T16:29:02.608Z,13.10
2022-10-07T16:31:30.226Z,13.02
2022-10-07T16:33:57.054Z,12.93
2022-10-07T16:36:24.389Z,12.86
2022-10-07T16:38:52.220Z,12.77
2022-10-07T16:41:19.440Z,12.72
2022-10-07T16:43:46.535Z,12.68
2022-10-07T16:46:21.047Z,12.63
2022-10-07T16:48:49.033Z,12.58
2022-10-07T16:51:17.553Z,12.54
2022-10-07T16:53:48.935Z,12.49
2022-10-07T16:56:19.822Z,12.45
2022-10-07T16:58:47.074Z,12.39
2022-10-07T17:01:14.748Z,12.34
2022-10-07T17:03:42.673Z,12.29
2022-10-07T17:06:13.590Z,12.24
2022-10-07T17:08:44.913Z,12.19
2022-10-07T17:11:28.626Z,12.13
2022-10-07T17:13:55.212Z,12.07
2022-10-07T17:16:22.203Z,12.02
2022-10-07T17:18:48.765Z,11.98
2022-10-07T17:21:15.298Z,11.93
2022-10-07T17:23:42.668Z,11.88
2022-10-07T17:26:09.241Z,11.84
2022-10-07T17:28:37.119Z,11.77
2022-10-07T17:31:08.365Z,11.72
2022-10-07T17:33:35.588Z,11.68
2022-10-07T17:36:04.435Z,11.64
2022-10-07T17:38:35.177Z,11.59
2022-10-07T17:41:09.823Z,11.52
2022-10-07T17:43:36.766Z,11.48
2022-10-07T17:46:03.405Z,11.45
2022-10-07T17:48:30.179Z,11.40
2022-10-07T17:51:01.717Z,11.35
2022-10-07T17:53:31.364Z,11.31
2022-10-07T17:55:58.558Z,11.26
2022-10-07T17:58:25.338Z,11.22
2022-10-07T18:00:52.180Z,11.18
2022-10-07T18:03:19.046Z,11.14
2022-10-07T18:05:54.829Z,11.09
2022-10-07T18:08:22.232Z,11.06
2022-10-07T18:10:51.959Z,11.03
2022-10-07T18:13:37.682Z,10.98
2022-10-07T18:16:05.174Z,10.95
2022-10-07T18:18:32.307Z,10.89
2022-10-07T18:21:04.245Z,10.85
2022-10-07T18:23:32.872Z,10.82
2022-10-07T18:26:02.788Z,10.77
2022-10-07T18:28:31.581Z,10.74
2022-10-07T18:30:58.612Z,10.70
2022-10-07T18:33:25.153Z,10.67
2022-10-07T18:36:01.770Z,10.62
2022-10-07T18:38:36.015Z,10.58
2022-10-07T18:41:03.744Z,10.53
2022-10-07T18:43:30.849Z,10.48
2022-10-07T18:46:01.630Z,10.46
2022-10-07T18:48:29.109Z,10.42
2022-10-07T18:50:56.001Z,10.38
2022-10-07T18:53:22.537Z,10.34
2022-10-07T18:55:49.138Z,10.29
2022-10-07T18:58:15.980Z,10.25
2022-10-07T19:00:42.769Z,10.23
2022-10-07T19:03:09.487Z,10.19
2022-10-07T19:05:36.959Z,10.16
2022-10-07T19:08:03.574Z,10.12
2022-10-07T19:10:30.376Z,10.09
2022-10-07T19:13:20.575Z,10.05
2022-10-07T19:15:47.361Z,10.01
2022-10-07T19:18:14.247Z,9.97
2022-10-07T19:20:42.485Z,9.94
2022-10-07T19:23:11.094Z,9.90
2022-10-07T19:25:47.742Z,9.87
2022-10-07T19:28:14.367Z,9.84
2022-10-07T19:30:45.428Z,9.81
2022-10-07T19:33:13.569Z,9.78
2022-10-07T19:35:40.625Z,9.76
2022-10-07T19:38:07.696Z,9.72
2022-10-07T19:40:38.341Z,9.70
2022-10-07T19:43:07.492Z,9.68
2022-10-07T19:45:35.602Z,9.66
2022-10-07T19:48:05.423Z,9.64
2022-10-07T19:50:33.563Z,9.61
2022-10-07T19:53:01.245Z,9.57
2022-10-07T19:55:28.466Z,9.55
2022-10-07T19:57:55.888Z,9.52
2022-10-07T20:00:24.546Z,9.49
2022-10-07T20:02:56.580Z,9.46
2022-10-07T20:05:24.487Z,9.44
2022-10-07T20:07:52.231Z,9.41
2022-10-07T20:10:19.091Z,9.39
2022-10-07T20:12:45.707Z,9.38
2022-10-07T20:15:14.396Z,9.39
2022-10-07T20:17:43.789Z,9.38
2022-10-07T20:20:13.074Z,9.35
2022-10-07T20:22:40.432Z,9.32
2022-10-07T20:25:07.782Z,9.31
2022-10-07T20:27:34.554Z,9.28
2022-10-07T20:30:11.006Z,9.27
2022-10-07T20:32:40.852Z,9.23
2022-10-07T20:35:12.208Z,9.20
2022-10-07T20:37:38.936Z,9.18
2022-10-07T20:40:24.406Z,9.15
2022-10-07T20:42:52.801Z,9.11
2022-10-07T20:45:20.198Z,9.07
2022-10-07T20:47:47.337Z,9.03
2022-10-07T20:50:14.307Z,9.01
2022-10-07T20:52:40.873Z,8.97
2022-10-07T20:55:09.670Z,8.96
2022-10-07T20:57:38.207Z,8.94
2022-10-07T21:00:15.864Z,8.91
2022-10-07T21:02:44.285Z,8.89
2022-10-07T21:05:11.372Z,8.86
2022-10-07T21:07:37.986Z,8.84
2022-10-07T21:10:04.962Z,8.81
2022-10-07T21:12:31.859Z,8.78
2022-10-07T21:15:00.575Z,8.75
2022-10-07T21:17:27.374Z,8.72
2022-10-07T21:19:55.791Z,8.71
2022-10-07T21:22:22.340Z,8.70
2022-10-07T21:24:49.829Z,8.67
2022-10-07T21:27:16.430Z,8.66
2022-10-07T21:29:47.966Z,8.63
2022-10-07T21:32:15.428Z,8.60
2022-10-07T21:34:43.626Z,8.56
2022-10-07T21:37:10.235Z,8.54
2022-10-07T21:39:38.132Z,8.53
2022-10-07T21:42:04.845Z,8.51
2022-10-07T21:44:33.410Z,8.51
2022-10-07T21:47:00.836Z,8.46
2022-10-07T21:49:27.446Z,8.43
2022-10-07T21:51:53.954Z,8.41
2022-10-07T21:54:21.075Z,8.39
2022-10-07T21:56:48.030Z,8.37
2022-10-07T21:59:14.629Z,8.36
2022-10-07T22:01:42.695Z,8.33
2022-10-07T22:04:14.897Z,8.31
2022-10-07T22:07:01.885Z,8.27
2022-10-07T22:09:29.006Z,8.26
2022-10-07T22:11:56.785Z,8.24
2022-10-07T22:14:23.650Z,8.19
2022-10-07T22:16:50.593Z,8.16
2022-10-07T22:19:20.301Z,8.13
2022-10-07T22:21:46.832Z,8.12
2022-10-07T22:24:14.156Z,8.08
2022-10-07T22:26:46.125Z,8.05
2022-10-07T22:29:14.297Z,8.03
2022-10-07T22:31:40.875Z,8.00
2022-10-07T22:34:07.515Z,7.99
2022-10-07T22:36:35.308Z,7.95
2022-10-07T22:39:01.858Z,7.91
2022-10-07T22:41:29.185Z,7.89
2022-10-07T22:43:56.342Z,7.88
2022-10-07T22:46:27.295Z,7.85
2022-10-07T22:48:56.382Z,7.83
2022-10-07T22:51:24.524Z,7.79
2022-10-07T22:53:52.695Z,7.78
2022-10-07T22:56:20.974Z,7.77
2022-10-07T22:58:53.113Z,7.75
2022-10-07T23:01:20.403Z,7.74
2022-10-07T23:03:47.068Z,7.70
2022-10-07T23:06:15.458Z,7.66
2022-10-07T23:08:41.950Z,7.64
2022-10-07T23:11:10.047Z,7.61
2022-10-07T23:13:37.578Z,7.59
2022-10-07T23:16:10.082Z,7.56
2022-10-07T23:18:37.045Z,7.53
2022-10-07T23:21:05.496Z,7.50
2022-10-07T23:23:38.565Z,7.48
2022-10-07T23:26:10.600Z,7.46
2022-10-07T23:28:37.328Z,7.43
2022-10-07T23:31:04.959Z,7.40
2022-10-07T23:33:33.054Z,7.39
2022-10-07T23:36:01.014Z,7.37
2022-10-07T23:38:28.601Z,7.36
2022-10-07T23:40:55.590Z,7.33
2022-10-07T23:43:22.906Z,7.30
2022-10-07T23:45:50.791Z,7.28
2022-10-07T23:48:19.162Z,7.24
2022-10-07T23:50:49.298Z,7.21
2022-10-07T23:53:16.359Z,7.19
2022-10-07T23:55:47.801Z,7.16
2022-10-07T23:58:15.377Z,7.15
